YWGT

Details ICAO YWGT
Name Wangaratta
Region Australia
Timezone Australia/Melbourne (UTC+11.0)
Plans Departing 0
Arriving 8
Stats Elevation 504 ft / 154 m (AMSL)
Location -36.417393° 146.305505°
Runways 2
Magnetic Variation 11.680° E
Sunrise 2017-12-17 18:53:23 UTC / 2017-12-18 05:53:23 Local
Sunset 2017-12-18 09:31:43 UTC / 2017-12-18 20:31:43 Local
Advertisement - Login to hide

Runways

ID Width Length Bearing (true) Bearing (mag) Surface Threshold Offset Overrun Length
18 98 ft / 30 m 5,387 ft / 1,642 m 188.10° 176.42° Asphalt 0 ft / 0 m 0 ft / 0 m
27 164 ft / 50 m 2,008 ft / 612 m 277.80° 266.12° Grass 0 ft / 0 m 0 ft / 0 m
36 98 ft / 30 m 5,387 ft / 1,642 m 8.11° 356.43° Asphalt 0 ft / 0 m 0 ft / 0 m
9 164 ft / 50 m 2,008 ft / 612 m 97.80° 86.12° Grass 0 ft / 0 m 0 ft / 0 m

Map

Weather


0- 5 10 15 20 25 30 35+ Temperature / ° C

Clouds and Precipitation
Forecast for 2017-12-18 12:00 UTC. Updated 2 hours ago

Ground ~20,000 ft ~40,000 ft Winds

METAR

YWGT 180800Z AUTO 13006KT 9999 // NCD 32/08 Q1007

TAF

TAF YWGT 180010Z 1802/1814 VRB05KT CAVOK

Frequencies

Unicom 119.10 MHz CTAF
Warning: Do not use this data for real-world aviation or navigation. No guarantee of current accuracy is given.